• Join FlightAware (Why Join?)
  • Login
  • US Flag 
11:31AM EDT


 

Airport Tracker/Info


-or-


 

Live Flight TrackerFlight Track Log ✈ G52617 ✈ 10-Nov-2013 ✈ ZGWZ / WUZ - ZGSD / ZUH

Flight Track Log - Related Links

Times and Time Zones

All times are in EST time to prevent confusion due to time zone crossing. See the G52617 flight status page for this flight to view local times or setup timezone preferences in your user account.

Time Position Orientation Groundspeed Altitude Reporting Facility
EST Latitude Longitude Course Direction KTS MPH feet Rate Location/Type
09:26PM 23.0603 111.8386 126° Southeast  Level Estimated
09:27PM 23.0241 111.8921 126° Southeast  Level Estimated
09:28PM 22.9952 111.9349 126° Southeast  Level Estimated
09:29PM 22.9662 111.9777 126° Southeast  Level Estimated
09:30PM 22.9373 112.0204 126° Southeast  Level Estimated
09:31PM 22.9083 112.0631 126° Southeast  Level Estimated
09:32PM 22.8794 112.1058 126° Southeast  Level Estimated
09:33PM 22.8504 112.1485 126° Southeast  Level Estimated
09:34PM 22.8214 112.1912 126° Southeast  Level Estimated
09:35PM 22.7924 112.2339 126° Southeast  Level Estimated
09:36PM 22.7633 112.2765 126° Southeast  Level Estimated
09:37PM 22.7343 112.3191 126° Southeast  Level Estimated
09:38PM 22.7053 112.3617 126° Southeast  Level Estimated
09:39PM 22.6762 112.4043 126° Southeast  Level Estimated
09:40PM 22.6472 112.4469 126° Southeast  Level Estimated
09:41PM 22.6181 112.4895 127° Southeast  Level Estimated
09:42PM 22.5890 112.5320 127° Southeast  Level Estimated
09:43PM 22.5599 112.5745 127° Southeast  Level Estimated
09:44PM 22.5308 112.6170 127° Southeast  Level Estimated
09:45PM 22.5016 112.6595 127° Southeast  Level Estimated
09:46PM 22.4725 112.7020 127° Southeast  Level Estimated
09:47PM 22.4434 112.7444 127° Southeast  Level Estimated
09:48PM 22.4142 112.7868 127° Southeast  Level Estimated
09:49PM 22.3851 112.8292 127° Southeast  Level Estimated
09:50PM 22.3559 112.8716 127° Southeast  Level Estimated
09:51PM 22.3267 112.9140 127° Southeast  Level Estimated
09:52PM 22.2975 112.9564 127° Southeast  Level Estimated
09:53PM 22.2683 112.9987 127° Southeast  Level Estimated
09:54PM 22.2391 113.0410 127° Southeast  Level Estimated
09:55PM 22.2098 113.0833 127° Southeast  Level Estimated
09:56PM 22.1806 113.1256 127° Southeast  Level Estimated
09:57PM 22.1513 113.1679 127° Southeast  Level Estimated
09:58PM 22.1221 113.2101 127° Southeast  Level Estimated
09:59PM 22.0928 113.2523 127° Southeast  Level Estimated
10:00PM 22.0635 113.2945 127° Southeast  Level Estimated
10:01PM 22.0342 113.3367 127° Southeast  Level Estimated
10:02PM 22.0067 113.3764 127° Southeast  Level Estimated
10:03PM 22.0067 113.3764 197° South  Level Estimated
10:04PM 22.0067 113.3764 197° South  Level Estimated